Tain, United Kingdom
Current Conditions -  °F | °C
As of 4:20 AM on Saturday 20 Dec 2014 (Local Time) from EGPE Reporting Station
Scattered Clouds Scattered Clouds  
Wind Chill:   Ceiling: Unl
Heat Index:   Visibility: 6mi
Dew Point: -1°   Wind: 23mph
Humidity: 65%   Direction: 270°W
Pressure: 29.71"   Gusts: NA
Location:  57.81°N, 4.06°W
Report Text: EGPE 200420Z 27020KT 9999 FEW015 SCT034 05/M01 Q1006
Loading
Personal Weather Stations






























Interactive Weather Map New forecast layout! Learn more

10-Day Weather Forecast

Advertisements
Track Severe Weather on mobile